Airfield :
LOGIN :

Register | Disclaimer

   EN    FR    IT 

 










Legend :    VFR   Marginal VFR   IFR   Intensive IFR   Very Intensive IFR
Visi :
Ceiling :
>= 8 km
>= 3000ft
5 to 8 km
1000 to 3000 ft
1500m to 5 km
500 to 1000 ft
800 to 1500m
200 to 500 ft
< 800m
< 200 ft
Symbols :   Thunderstorms  Fog  Heavy snow  Heavy precipitations  Wind > 20 kt
SIGMETs :     Misc.  Thunderstorms  Icing  Turbulence  Mountain Waves  Volcanic Ashes






- Airport Elevation : 465 ft
- IATA code : LEJ


EDDP - Leipzig Halle

CURRENT METAR :
  • 181850Z 32003KT 9999 -SHRA SCT040CB 11/10 Q1012 NOSIG

EXPIRED METARs :
  • 181820Z 00000KT 9999 -SHRA SCT035CB 12/10 Q1012 NOSIG
  • 181750Z 14003KT 100V160 9999 -SHRA SCT035CB 12/10 Q1011 NOSIG
  • 181720Z 19007KT 150V210 9999 -SHRA BKN030CB 13/09 Q1011 NOSIG
  • 181650Z 07003KT 040V100 9999 -SHRA BKN030CB 13/08 Q1011 NOSIG
  • 181620Z 01007KT 9999 VCSH BKN035CB 13/08 Q1011 NOSIG

TAF TAF EDDP
Valid from the 18 at 18:00 until the 19 at 18:00 UTC


181700Z 1818/1918 28006KT 9999 SCT040CB
BECMG 1819/1821 BKN035
BECMG 1901/1903 4500 BR
PROB40
TEMPO 1903/1907 2000 BR BKN006
BECMG 1905/1907 9999
PROB40
TEMPO 1914/1917 -TSRA SCT025CB



MET'MAP, your aeronautical weather chart ! - Copyright ORBIFLY December 2007 - Disclaimer

ORBIFLY MET'MAP TEAM :

Programming & Development : Alexandra Zaïnal
Concept & original design : Baudouin d'Aumeries
Assistance for programming : Marc-Olivier Méhu
Technical & hardware support : Manuel Goepfert

Contact : metmap@orbifly.com




SOURCES & CREDITS :

   NOAA